createdAt,value
2023-04-25T00:01:37.164Z,42.24
2023-04-25T00:03:40.484Z,42.23
2023-04-25T00:05:43.456Z,42.23
2023-04-25T00:07:47.131Z,42.24
2023-04-25T00:09:49.965Z,42.52
2023-04-25T00:11:52.507Z,42.54
2023-04-25T00:13:55.463Z,42.29
2023-04-25T00:15:59.201Z,42.85
2023-04-25T00:18:01.935Z,42.91
2023-04-25T00:20:10.731Z,42.66
2023-04-25T00:22:14.453Z,42.63
2023-04-25T00:24:17.032Z,43.12
2023-04-25T00:26:19.833Z,42.95
2023-04-25T00:28:22.376Z,42.93
2023-04-25T00:30:25.013Z,43.04
2023-04-25T00:32:27.987Z,43.30
2023-04-25T00:34:30.561Z,43.10
2023-04-25T00:36:33.176Z,43.32
2023-04-25T00:38:35.872Z,43.13
2023-04-25T00:40:38.466Z,42.93
2023-04-25T00:42:42.921Z,42.93
2023-04-25T00:44:46.376Z,43.35
2023-04-25T00:46:50.607Z,43.12
2023-04-25T00:48:53.355Z,43.09
2023-04-25T00:50:58.920Z,43.68
2023-04-25T00:53:02.011Z,43.45
2023-04-25T00:55:05.380Z,43.63
2023-04-25T00:57:08.076Z,43.73
2023-04-25T00:59:11.153Z,43.45
2023-04-25T01:01:14.559Z,43.63
2023-04-25T01:03:18.636Z,43.34
2023-04-25T01:05:21.348Z,43.52
2023-04-25T01:07:23.986Z,43.26
2023-04-25T01:09:27.255Z,43.29
2023-04-25T01:11:29.810Z,43.31
2023-04-25T01:13:33.358Z,43.01
2023-04-25T01:15:37.203Z,43.23
2023-04-25T01:17:42.554Z,43.54
2023-04-25T01:19:47.159Z,43.54
2023-04-25T01:21:49.968Z,43.61
2023-04-25T01:23:52.993Z,44.01
2023-04-25T01:25:56.402Z,43.74
2023-04-25T01:27:59.832Z,43.66
2023-04-25T01:30:02.515Z,43.93
2023-04-25T01:32:09.492Z,43.74
2023-04-25T01:34:13.452Z,43.92
2023-04-25T01:36:16.580Z,43.41
2023-04-25T01:38:19.118Z,43.47
2023-04-25T01:40:23.585Z,43.42
2023-04-25T01:42:26.271Z,43.22
2023-04-25T01:44:29.268Z,43.46
2023-04-25T01:46:32.367Z,43.08
2023-04-25T01:48:35.114Z,43.36
2023-04-25T01:50:39.559Z,43.18
2023-04-25T01:52:42.156Z,43.25
2023-04-25T01:54:45.847Z,43.45
2023-04-25T01:56:52.318Z,43.49
2023-04-25T01:58:55.207Z,43.43
2023-04-25T02:00:57.999Z,43.08
2023-04-25T02:03:00.712Z,43.44
2023-04-25T02:05:03.709Z,43.61
2023-04-25T02:07:06.875Z,42.92
2023-04-25T02:09:09.490Z,43.33
2023-04-25T02:11:12.507Z,43.74
2023-04-25T02:13:15.128Z,43.63
2023-04-25T02:15:17.881Z,43.57
2023-04-25T02:17:22.421Z,43.43
2023-04-25T02:19:25.035Z,43.45
2023-04-25T02:21:27.714Z,43.07
2023-04-25T02:23:30.380Z,43.22
2023-04-25T02:25:32.991Z,42.80
2023-04-25T02:27:35.801Z,42.68
2023-04-25T02:29:39.363Z,42.55
2023-04-25T02:31:42.004Z,42.46
2023-04-25T02:33:45.020Z,42.49
2023-04-25T02:35:47.749Z,42.34
2023-04-25T02:37:50.356Z,42.20
2023-04-25T02:39:52.980Z,42.47
2023-04-25T02:41:55.734Z,42.33
2023-04-25T02:43:58.302Z,42.81
2023-04-25T02:46:01.010Z,42.89
2023-04-25T02:48:04.624Z,43.06
2023-04-25T02:50:07.818Z,42.95
2023-04-25T02:52:10.493Z,43.37
2023-04-25T02:54:13.113Z,43.37
2023-04-25T02:56:15.718Z,42.92
2023-04-25T02:58:18.761Z,42.76
2023-04-25T03:00:21.362Z,42.61
2023-04-25T03:02:23.947Z,42.75
2023-04-25T03:04:26.723Z,43.34
2023-04-25T03:06:29.386Z,43.40
2023-04-25T03:08:33.696Z,43.89
2023-04-25T03:10:36.433Z,44.67
2023-04-25T03:12:39.149Z,44.53
2023-04-25T03:14:41.776Z,44.13
2023-04-25T03:16:44.464Z,43.98
2023-04-25T03:18:47.009Z,43.55
2023-04-25T03:20:49.550Z,44.11
2023-04-25T03:22:52.188Z,43.67
2023-04-25T03:24:54.809Z,44.61
2023-04-25T03:26:57.513Z,45.85
2023-04-25T03:29:00.046Z,46.30
2023-04-25T03:31:02.620Z,46.42
2023-04-25T03:33:05.184Z,45.25
2023-04-25T03:35:08.358Z,44.61
2023-04-25T03:37:11.060Z,45.42
2023-04-25T03:39:13.940Z,45.90
2023-04-25T03:41:16.825Z,46.47
2023-04-25T03:43:19.566Z,46.88
2023-04-25T03:45:22.299Z,46.48
2023-04-25T03:47:24.926Z,47.33
2023-04-25T03:49:27.584Z,47.73
2023-04-25T03:51:30.327Z,47.87
2023-04-25T03:53:32.863Z,47.34
2023-04-25T03:55:35.877Z,47.08
2023-04-25T03:57:38.420Z,46.13
2023-04-25T03:59:41.036Z,46.55
2023-04-25T04:01:43.841Z,47.32
2023-04-25T04:03:46.832Z,45.65
2023-04-25T04:05:49.930Z,47.31
2023-04-25T04:07:52.508Z,45.35
2023-04-25T04:09:55.113Z,45.03
2023-04-25T04:11:57.886Z,45.50
2023-04-25T04:14:01.124Z,45.29
2023-04-25T04:16:05.430Z,44.60
2023-04-25T04:18:08.181Z,44.20
2023-04-25T04:20:11.168Z,44.88
2023-04-25T04:22:13.748Z,43.38
2023-04-25T04:24:17.915Z,43.57
2023-04-25T04:26:20.548Z,43.40
2023-04-25T04:28:23.138Z,43.71
2023-04-25T04:30:26.561Z,42.92
2023-04-25T04:32:29.121Z,42.94
2023-04-25T04:34:32.208Z,43.27
2023-04-25T04:36:34.870Z,44.01
2023-04-25T04:38:38.351Z,43.05
2023-04-25T04:40:44.217Z,42.29
2023-04-25T04:42:46.804Z,41.78
2023-04-25T04:44:49.359Z,42.02
2023-04-25T04:46:53.032Z,41.72
2023-04-25T04:48:57.496Z,42.67
2023-04-25T04:51:00.219Z,42.52
2023-04-25T04:53:03.396Z,42.82
2023-04-25T04:55:06.949Z,42.35
2023-04-25T04:57:09.527Z,41.77
2023-04-25T04:59:12.114Z,42.59
2023-04-25T05:01:17.115Z,41.90
2023-04-25T05:03:19.902Z,42.13
2023-04-25T05:05:22.766Z,42.08
2023-04-25T05:07:26.046Z,42.50
2023-04-25T05:09:28.642Z,41.55
2023-04-25T05:11:31.322Z,41.17
2023-04-25T05:13:34.476Z,41.36
2023-04-25T05:15:37.326Z,41.42
2023-04-25T05:17:40.301Z,41.22
2023-04-25T05:19:43.062Z,40.97
2023-04-25T05:21:45.628Z,42.65
2023-04-25T05:23:48.172Z,41.43
2023-04-25T05:25:50.666Z,41.46
2023-04-25T05:27:53.570Z,41.11
2023-04-25T05:29:56.122Z,40.69
2023-04-25T05:31:58.776Z,40.04
2023-04-25T05:34:01.415Z,39.77
2023-04-25T05:36:04.124Z,39.23
2023-04-25T05:38:06.747Z,38.60
2023-04-25T05:40:09.995Z,40.14
2023-04-25T05:42:12.563Z,38.71
2023-04-25T05:44:17.065Z,38.71
2023-04-25T05:46:19.719Z,37.52
2023-04-25T05:48:22.340Z,37.02
2023-04-25T05:50:25.053Z,37.45
2023-04-25T05:52:27.604Z,37.29
2023-04-25T05:54:30.073Z,37.03
2023-04-25T05:56:32.676Z,36.67
2023-04-25T05:58:35.765Z,37.59
2023-04-25T06:00:39.698Z,37.60
2023-04-25T06:02:42.724Z,37.44
2023-04-25T06:04:45.523Z,37.27
2023-04-25T06:06:48.231Z,36.91
2023-04-25T06:08:51.589Z,36.20
2023-04-25T06:10:54.409Z,36.10
2023-04-25T06:12:56.906Z,35.51
2023-04-25T06:14:59.398Z,36.21
2023-04-25T06:17:07.468Z,37.01
2023-04-25T06:19:10.019Z,36.07
2023-04-25T06:21:12.679Z,37.13
2023-04-25T06:23:15.220Z,37.06
2023-04-25T06:25:17.945Z,38.34
2023-04-25T06:27:20.495Z,39.34
2023-04-25T06:29:23.077Z,38.24
2023-04-25T06:31:26.413Z,37.83
2023-04-25T06:33:29.800Z,38.39
2023-04-25T06:35:32.406Z,38.18
2023-04-25T06:37:34.982Z,38.02
2023-04-25T06:39:39.836Z,37.66
2023-04-25T06:41:43.649Z,37.98
2023-04-25T06:43:46.120Z,37.51
2023-04-25T06:45:48.828Z,38.64
2023-04-25T06:47:51.701Z,37.44
2023-04-25T06:49:54.299Z,37.38
2023-04-25T06:51:57.161Z,39.02
2023-04-25T06:54:00.639Z,39.38
2023-04-25T06:56:04.150Z,39.20
2023-04-25T06:58:06.742Z,38.44
2023-04-25T07:00:10.728Z,38.07
2023-04-25T07:02:13.670Z,38.35
2023-04-25T07:04:16.524Z,38.05
2023-04-25T07:06:19.535Z,38.00
2023-04-25T07:08:22.514Z,37.23
2023-04-25T07:10:25.166Z,36.89
2023-04-25T07:12:27.733Z,37.48
2023-04-25T07:14:30.263Z,37.12
2023-04-25T07:16:33.018Z,37.02
2023-04-25T07:18:35.541Z,36.36
2023-04-25T07:20:38.075Z,36.01
2023-04-25T07:22:40.642Z,37.24
2023-04-25T07:24:43.231Z,36.89
2023-04-25T07:26:46.053Z,37.51
2023-04-25T07:28:52.060Z,36.50
2023-04-25T07:30:54.845Z,36.63
2023-04-25T07:32:57.418Z,36.46
2023-04-25T07:34:59.977Z,35.83
2023-04-25T07:37:02.614Z,36.65
2023-04-25T07:39:05.199Z,37.04
2023-04-25T07:41:07.921Z,36.76
2023-04-25T07:43:13.389Z,37.44
2023-04-25T07:45:16.562Z,36.86
2023-04-25T07:47:20.427Z,36.31
2023-04-25T07:49:23.216Z,36.23
2023-04-25T07:51:25.782Z,36.44
2023-04-25T07:53:28.402Z,35.47
2023-04-25T07:55:31.080Z,35.78
2023-04-25T07:57:33.685Z,35.03
2023-04-25T07:59:36.274Z,36.03
2023-04-25T08:01:38.961Z,35.66
2023-04-25T08:03:41.755Z,35.50
2023-04-25T08:05:44.928Z,36.78
2023-04-25T08:07:47.704Z,35.64
2023-04-25T08:09:50.364Z,35.80
2023-04-25T08:11:53.027Z,36.12
2023-04-25T08:13:55.589Z,36.02
2023-04-25T08:15:58.337Z,36.38
2023-04-25T08:18:00.989Z,36.11
2023-04-25T08:20:06.937Z,35.31
2023-04-25T08:22:10.178Z,36.22
2023-04-25T08:24:12.867Z,35.95
2023-04-25T08:26:16.113Z,35.38
2023-04-25T08:28:18.666Z,36.03
2023-04-25T08:30:22.099Z,36.11
2023-04-25T08:32:24.872Z,36.72
2023-04-25T08:34:27.442Z,36.10
2023-04-25T08:38:35.588Z,36.99
2023-04-25T08:40:40.862Z,36.58
2023-04-25T08:42:44.017Z,36.71
2023-04-25T08:44:47.408Z,37.40
2023-04-25T08:46:51.233Z,37.22
2023-04-25T08:48:57.879Z,37.17
2023-04-25T08:51:03.761Z,37.65
2023-04-25T08:53:11.493Z,37.56
2023-04-25T08:55:15.315Z,36.89
2023-04-25T08:57:18.964Z,37.93
2023-04-25T08:59:23.749Z,37.67
2023-04-25T09:01:26.976Z,37.57
2023-04-25T09:03:29.804Z,37.90
2023-04-25T09:05:36.692Z,37.51
2023-04-25T09:07:39.272Z,38.32
2023-04-25T09:09:41.824Z,37.93
2023-04-25T09:11:44.539Z,37.61
2023-04-25T09:13:47.208Z,37.94
2023-04-25T09:15:57.985Z,37.64
2023-04-25T09:18:01.255Z,37.67
2023-04-25T09:20:09.202Z,38.18
2023-04-25T09:22:11.900Z,38.24
2023-04-25T09:24:14.555Z,38.33
2023-04-25T09:26:19.499Z,38.75
2023-04-25T09:28:28.613Z,38.32
2023-04-25T09:30:35.219Z,39.01
2023-04-25T09:32:38.285Z,38.16
2023-04-25T09:34:45.107Z,38.67
2023-04-25T09:36:47.770Z,37.95
2023-04-25T09:38:50.342Z,37.79
2023-04-25T09:40:53.332Z,37.65
2023-04-25T09:42:56.374Z,38.37
2023-04-25T09:45:00.174Z,38.71
2023-04-25T09:47:04.095Z,39.15
2023-04-25T09:49:09.650Z,39.03
2023-04-25T09:51:15.015Z,38.70
2023-04-25T09:53:17.558Z,38.12
2023-04-25T09:55:21.515Z,38.87
2023-04-25T09:57:25.730Z,38.36
2023-04-25T09:59:32.727Z,38.87
2023-04-25T10:01:37.808Z,38.19
2023-04-25T10:03:48.002Z,38.49
2023-04-25T10:05:55.242Z,37.81
2023-04-25T10:07:58.799Z,38.49
2023-04-25T10:10:06.016Z,38.23
2023-04-25T10:12:10.134Z,38.04
2023-04-25T10:14:14.236Z,37.98
2023-04-25T10:16:17.633Z,37.04
2023-04-25T10:18:21.075Z,36.75
2023-04-25T10:20:24.418Z,36.58
2023-04-25T10:22:37.426Z,36.06
2023-04-25T10:24:40.627Z,36.39
2023-04-25T10:26:44.442Z,36.27
2023-04-25T10:28:58.035Z,36.18
2023-04-25T10:31:06.816Z,36.29
2023-04-25T10:33:20.070Z,36.27
2023-04-25T10:35:33.162Z,36.43
2023-04-25T10:37:39.485Z,36.31
2023-04-25T10:39:45.070Z,36.71
2023-04-25T10:41:54.184Z,36.40
2023-04-25T10:44:04.742Z,36.41
2023-04-25T10:46:21.311Z,36.93
2023-04-25T10:48:28.758Z,36.82
2023-04-25T10:50:40.711Z,36.64
2023-04-25T10:52:45.515Z,36.94
2023-04-25T10:54:55.519Z,37.60
2023-04-25T10:56:59.878Z,37.14
2023-04-25T10:59:19.449Z,37.11
2023-04-25T11:01:25.886Z,37.28
2023-04-25T11:03:28.756Z,37.47
2023-04-25T11:05:51.066Z,37.75
2023-04-25T11:08:07.566Z,37.40
2023-04-25T11:10:11.028Z,37.79
2023-04-25T11:12:14.320Z,37.96
2023-04-25T11:14:16.951Z,38.21
2023-04-25T11:16:27.460Z,38.81
2023-04-25T11:18:31.422Z,40.03
2023-04-25T11:20:34.129Z,41.95
2023-04-25T11:22:36.882Z,42.97
2023-04-25T11:24:39.581Z,43.68
2023-04-25T11:26:48.787Z,44.37
2023-04-25T11:28:51.427Z,44.91
2023-04-25T11:30:54.162Z,45.59
2023-04-25T11:32:56.890Z,45.62
2023-04-25T11:34:59.464Z,46.14
2023-04-25T11:37:03.281Z,46.58
2023-04-25T11:39:07.133Z,45.97
2023-04-25T11:41:09.715Z,46.20
2023-04-25T11:43:12.368Z,46.68
2023-04-25T11:45:16.924Z,46.09
2023-04-25T11:47:19.952Z,45.66
2023-04-25T11:49:23.275Z,45.55
2023-04-25T11:51:26.588Z,45.20
2023-04-25T11:53:29.484Z,44.60
2023-04-25T11:55:32.401Z,44.55
2023-04-25T11:57:35.084Z,45.23
2023-04-25T11:59:37.661Z,45.05
2023-04-25T12:01:42.047Z,44.98
2023-04-25T12:03:47.797Z,44.88
2023-04-25T12:05:51.826Z,44.77
2023-04-25T12:07:54.603Z,44.87
2023-04-25T12:09:57.268Z,45.45
2023-04-25T12:12:03.833Z,45.28
2023-04-25T12:14:06.903Z,45.68
2023-04-25T12:16:09.729Z,45.23
2023-04-25T12:18:12.735Z,45.11
2023-04-25T12:20:17.829Z,45.18
2023-04-25T12:22:25.964Z,45.80
2023-04-25T12:24:29.093Z,45.39
2023-04-25T12:26:47.639Z,45.19
2023-04-25T12:28:50.645Z,44.81
2023-04-25T12:31:06.343Z,45.17
2023-04-25T12:33:09.676Z,45.90
2023-04-25T12:35:12.251Z,45.18
2023-04-25T12:37:15.247Z,45.11
2023-04-25T12:39:18.315Z,44.45
2023-04-25T12:41:20.937Z,44.62
2023-04-25T12:43:23.878Z,45.02
2023-04-25T12:45:26.974Z,45.45
2023-04-25T12:47:29.646Z,46.01
2023-04-25T12:49:33.116Z,45.92
2023-04-25T12:51:37.399Z,46.44
2023-04-25T12:53:41.814Z,46.92
2023-04-25T12:55:47.063Z,46.61
2023-04-25T12:57:49.972Z,46.78
2023-04-25T12:59:52.564Z,46.88
2023-04-25T13:01:55.370Z,46.61
2023-04-25T13:03:58.087Z,46.87
2023-04-25T13:06:00.867Z,46.68
2023-04-25T13:08:03.787Z,47.46
2023-04-25T13:10:08.097Z,48.18
2023-04-25T13:12:11.282Z,48.60
2023-04-25T13:14:14.254Z,48.68
2023-04-25T13:16:17.162Z,49.14
2023-04-25T13:18:20.541Z,49.67
2023-04-25T13:20:23.698Z,49.15
2023-04-25T13:22:26.656Z,49.08
2023-04-25T13:24:29.246Z,49.83
2023-04-25T13:26:32.168Z,49.85
2023-04-25T13:28:35.034Z,50.50
2023-04-25T13:30:38.235Z,50.17
2023-04-25T13:32:42.257Z,50.82
2023-04-25T13:34:47.322Z,51.19
2023-04-25T13:36:50.334Z,51.19
2023-04-25T13:38:53.208Z,51.54
2023-04-25T13:40:56.275Z,51.57
2023-04-25T13:43:00.469Z,52.24
2023-04-25T13:45:03.973Z,52.23
2023-04-25T13:47:11.278Z,51.64
2023-04-25T13:49:14.341Z,51.92
2023-04-25T13:51:18.699Z,52.21
2023-04-25T13:53:22.237Z,52.29
2023-04-25T13:55:24.928Z,53.26
2023-04-25T13:57:27.486Z,53.61
2023-04-25T13:59:30.080Z,53.84
2023-04-25T14:01:35.505Z,54.74
2023-04-25T14:03:38.398Z,54.63
2023-04-25T14:05:42.158Z,54.95
2023-04-25T14:07:46.262Z,55.51
2023-04-25T14:09:49.091Z,55.53
2023-04-25T14:11:51.609Z,56.36
2023-04-25T14:13:54.273Z,57.39
2023-04-25T14:15:57.023Z,58.35
2023-04-25T14:18:00.825Z,59.43
2023-04-25T14:20:03.523Z,60.34
2023-04-25T14:22:07.759Z,60.70
2023-04-25T14:24:12.051Z,61.38
2023-04-25T14:26:14.667Z,61.76
2023-04-25T14:28:17.182Z,62.83
2023-04-25T14:30:21.515Z,63.86
2023-04-25T14:32:24.375Z,64.61
2023-04-25T14:34:27.040Z,66.18
2023-04-25T14:36:30.060Z,67.60
2023-04-25T14:38:32.562Z,67.64
2023-04-25T14:40:35.100Z,68.37
2023-04-25T14:42:38.120Z,68.55
2023-04-25T14:44:40.823Z,69.26
2023-04-25T14:46:43.600Z,69.44
2023-04-25T14:48:46.828Z,69.32
2023-04-25T14:50:49.581Z,70.70
2023-04-25T14:52:53.846Z,70.99
2023-04-25T14:54:56.643Z,70.44
2023-04-25T14:56:59.337Z,71.18
2023-04-25T14:59:01.846Z,72.25
2023-04-25T15:01:04.728Z,72.16
2023-04-25T15:03:08.797Z,72.35
2023-04-25T15:05:11.687Z,73.21
2023-04-25T15:07:15.769Z,73.87
2023-04-25T15:09:20.492Z,73.36
2023-04-25T15:11:23.200Z,73.12
2023-04-25T15:13:26.735Z,74.10
2023-04-25T15:15:29.309Z,73.91
2023-04-25T15:17:32.304Z,74.88
2023-04-25T15:19:34.946Z,76.97
2023-04-25T15:21:37.581Z,76.59
2023-04-25T15:23:40.257Z,76.80
2023-04-25T15:25:43.234Z,77.68
2023-04-25T15:27:47.694Z,77.57
2023-04-25T15:29:50.265Z,77.29
2023-04-25T15:31:53.021Z,78.61
2023-04-25T15:33:55.688Z,78.97
2023-04-25T15:35:59.031Z,78.83
2023-04-25T15:38:01.704Z,78.32
2023-04-25T15:40:10.847Z,78.86
2023-04-25T15:42:13.882Z,79.72
2023-04-25T15:44:16.590Z,79.50
2023-04-25T15:46:19.252Z,80.06
2023-04-25T15:48:21.974Z,81.24
2023-04-25T15:50:25.217Z,80.75
2023-04-25T15:52:27.925Z,81.48
2023-04-25T15:54:32.740Z,81.46
2023-04-25T15:56:35.383Z,82.72
2023-04-25T15:58:38.234Z,82.84
2023-04-25T16:00:40.921Z,83.10
2023-04-25T16:02:45.757Z,82.62
2023-04-25T16:04:48.950Z,83.11
2023-04-25T16:06:52.451Z,83.26
2023-04-25T16:08:55.388Z,84.07
2023-04-25T16:10:58.084Z,83.75
2023-04-25T16:13:00.661Z,84.44
2023-04-25T16:15:04.112Z,83.81
2023-04-25T16:17:08.263Z,85.03
2023-04-25T16:19:11.276Z,83.68
2023-04-25T16:21:17.356Z,83.33
2023-04-25T16:23:20.119Z,83.08
2023-04-25T16:25:22.714Z,82.81
2023-04-25T16:27:25.836Z,84.31
2023-04-25T16:29:28.431Z,84.26
2023-04-25T16:31:31.167Z,85.15
2023-04-25T16:33:34.713Z,85.14
2023-04-25T16:35:37.286Z,85.62
2023-04-25T16:37:39.959Z,85.56
2023-04-25T16:39:42.524Z,86.26
2023-04-25T16:41:45.225Z,86.05
2023-04-25T16:43:47.799Z,85.60
2023-04-25T16:45:50.471Z,85.00
2023-04-25T16:47:53.385Z,84.61
2023-04-25T16:49:56.215Z,84.66
2023-04-25T16:51:58.843Z,85.05
2023-04-25T16:54:01.750Z,85.07
2023-04-25T16:56:04.833Z,85.44
2023-04-25T16:58:09.922Z,85.61
2023-04-25T17:00:13.807Z,84.86
2023-04-25T17:02:17.498Z,85.96
2023-04-25T17:04:20.346Z,87.20
2023-04-25T17:06:23.035Z,87.90
2023-04-25T17:08:25.667Z,88.98
2023-04-25T17:10:28.957Z,88.98
2023-04-25T17:12:31.662Z,89.27
2023-04-25T17:14:36.183Z,90.18
2023-04-25T17:16:39.467Z,90.69
2023-04-25T17:18:43.317Z,91.09
2023-04-25T17:20:46.797Z,91.80
2023-04-25T17:22:49.879Z,91.64
2023-04-25T17:24:52.433Z,91.93
2023-04-25T17:26:57.372Z,91.70
2023-04-25T17:28:59.916Z,92.09
2023-04-25T17:31:02.545Z,92.37
2023-04-25T17:33:06.873Z,92.90
2023-04-25T17:35:10.341Z,93.22
2023-04-25T17:37:16.331Z,93.48
2023-04-25T17:39:20.234Z,93.49
2023-04-25T17:41:22.866Z,93.28
2023-04-25T17:43:26.808Z,93.26
2023-04-25T17:45:34.729Z,93.68
2023-04-25T17:47:37.434Z,93.69
2023-04-25T17:49:40.249Z,94.28
2023-04-25T17:51:42.858Z,95.40
2023-04-25T17:53:45.455Z,94.96
2023-04-25T17:55:50.596Z,94.90
2023-04-25T17:57:53.211Z,93.98
2023-04-25T17:59:57.915Z,93.95
2023-04-25T18:02:01.198Z,94.08
2023-04-25T18:04:04.496Z,94.51
2023-04-25T18:06:07.372Z,94.15
2023-04-25T18:08:10.414Z,94.65
2023-04-25T18:10:13.068Z,95.33
2023-04-25T18:12:15.833Z,94.77
2023-04-25T18:14:20.540Z,95.18
2023-04-25T18:16:23.330Z,95.32
2023-04-25T18:18:33.229Z,95.43
2023-04-25T18:20:35.917Z,95.56
2023-04-25T18:22:38.674Z,95.71
2023-04-25T18:24:41.438Z,94.79
2023-04-25T18:26:48.789Z,95.09
2023-04-25T18:28:52.081Z,95.35
2023-04-25T18:30:55.117Z,96.03
2023-04-25T18:32:59.007Z,95.86
2023-04-25T18:35:01.805Z,95.66
2023-04-25T18:37:08.663Z,96.65
2023-04-25T18:39:21.991Z,96.58
2023-04-25T18:41:51.081Z,96.65
2023-04-25T18:43:49.153Z,96.97
2023-04-25T18:45:52.429Z,97.21
2023-04-25T18:47:55.250Z,97.43
2023-04-25T18:49:57.956Z,98.00
2023-04-25T18:52:01.012Z,98.37
2023-04-25T18:54:04.735Z,98.03
2023-04-25T18:56:07.886Z,98.59
2023-04-25T18:58:10.639Z,98.63
2023-04-25T19:00:14.125Z,99.26
2023-04-25T19:02:18.047Z,99.20
2023-04-25T19:04:21.665Z,99.12
2023-04-25T19:06:29.182Z,99.15
2023-04-25T19:08:31.865Z,99.64
2023-04-25T19:10:34.568Z,99.00
2023-04-25T19:12:37.495Z,98.68
2023-04-25T19:14:40.652Z,98.71
2023-04-25T19:16:43.370Z,99.13
2023-04-25T19:18:47.114Z,98.90
2023-04-25T19:20:49.803Z,99.28
2023-04-25T19:22:52.982Z,99.29
2023-04-25T19:25:02.969Z,99.74
2023-04-25T19:27:11.621Z,100.00
2023-04-25T19:29:15.291Z,100.00
2023-04-25T19:31:19.296Z,100.00
2023-04-25T19:33:22.025Z,100.00
2023-04-25T19:35:24.982Z,100.00
2023-04-25T19:37:27.705Z,100.00
2023-04-25T19:39:30.387Z,100.00
2023-04-25T19:41:36.130Z,99.84
2023-04-25T19:43:38.875Z,100.00
2023-04-25T19:45:41.554Z,100.00
2023-04-25T19:47:45.024Z,100.00
2023-04-25T19:49:47.721Z,100.00
2023-04-25T19:51:50.453Z,100.00
2023-04-25T19:53:56.300Z,100.00
2023-04-25T19:55:59.214Z,100.00
2023-04-25T19:58:02.690Z,100.00
2023-04-25T20:00:14.464Z,100.00
2023-04-25T20:02:18.470Z,100.00
2023-04-25T20:04:21.392Z,100.00
2023-04-25T20:06:24.037Z,100.00
2023-04-25T20:08:26.683Z,100.00
2023-04-25T20:10:29.289Z,100.00
2023-04-25T20:12:32.223Z,100.00
2023-04-25T20:14:34.861Z,100.00
2023-04-25T20:16:37.605Z,100.00
2023-04-25T20:18:40.406Z,100.00
2023-04-25T20:20:42.964Z,100.00
2023-04-25T20:22:45.688Z,100.00
2023-04-25T20:24:48.252Z,100.00
2023-04-25T20:26:51.003Z,100.00
2023-04-25T20:28:54.227Z,100.00
2023-04-25T20:30:57.178Z,100.00
2023-04-25T20:33:01.866Z,100.00
2023-04-25T20:35:07.345Z,100.00
2023-04-25T20:37:10.057Z,100.00
2023-04-25T20:39:12.808Z,100.00
2023-04-25T20:41:15.980Z,100.00
2023-04-25T20:43:19.986Z,100.00
2023-04-25T20:45:24.578Z,100.00
2023-04-25T20:47:27.785Z,100.00
2023-04-25T20:49:30.381Z,100.00
2023-04-25T20:51:33.704Z,100.00
2023-04-25T20:53:36.551Z,100.00
2023-04-25T20:55:41.691Z,100.00
2023-04-25T20:57:44.280Z,100.00
2023-04-25T20:59:47.824Z,100.00
2023-04-25T21:02:19.824Z,100.00
2023-04-25T21:04:24.321Z,100.00
2023-04-25T21:06:27.817Z,100.00
2023-04-25T21:08:30.615Z,100.00
2023-04-25T21:10:34.953Z,100.00
2023-04-25T21:12:38.897Z,100.00
2023-04-25T21:14:41.698Z,100.00
2023-04-25T21:16:44.479Z,100.00
2023-04-25T21:18:47.152Z,100.00
2023-04-25T21:20:49.990Z,100.00
2023-04-25T21:22:54.167Z,100.00
2023-04-25T21:24:57.403Z,100.00
2023-04-25T21:27:00.126Z,100.00
2023-04-25T21:29:02.984Z,100.00
2023-04-25T21:31:05.777Z,100.00
2023-04-25T21:33:08.657Z,100.00
2023-04-25T21:35:12.044Z,100.00
2023-04-25T21:37:14.850Z,100.00
2023-04-25T21:39:17.629Z,100.00
2023-04-25T21:41:20.392Z,100.00
2023-04-25T21:43:23.098Z,100.00
2023-04-25T21:45:26.063Z,100.00
2023-04-25T21:47:29.641Z,100.00
2023-04-25T21:49:33.069Z,100.00
2023-04-25T21:51:35.778Z,100.00
2023-04-25T21:53:38.443Z,100.00
2023-04-25T21:55:41.163Z,100.00
2023-04-25T21:57:43.922Z,100.00
2023-04-25T21:59:46.764Z,100.00
2023-04-25T22:01:50.145Z,100.00
2023-04-25T22:03:53.004Z,100.00
2023-04-25T22:05:56.689Z,100.00
2023-04-25T22:07:59.484Z,100.00
2023-04-25T22:10:02.799Z,100.00
2023-04-25T22:12:06.257Z,100.00
2023-04-25T22:14:10.034Z,100.00
2023-04-25T22:16:12.885Z,100.00
2023-04-25T22:18:16.497Z,100.00
2023-04-25T22:20:23.337Z,100.00
2023-04-25T22:22:26.647Z,100.00
2023-04-25T22:24:30.200Z,100.00
2023-04-25T22:26:33.768Z,100.00
2023-04-25T22:28:37.427Z,100.00
2023-04-25T22:30:40.230Z,100.00
2023-04-25T22:32:43.619Z,100.00
2023-04-25T22:34:46.996Z,100.00
2023-04-25T22:36:49.757Z,100.00
2023-04-25T22:38:53.296Z,100.00
2023-04-25T22:40:56.545Z,100.00
2023-04-25T22:42:59.293Z,100.00
2023-04-25T22:45:02.243Z,100.00
2023-04-25T22:47:06.508Z,100.00
2023-04-25T22:49:09.191Z,100.00
2023-04-25T22:51:12.937Z,100.00
2023-04-25T22:53:16.536Z,100.00
2023-04-25T22:55:19.291Z,100.00
2023-04-25T22:57:23.244Z,100.00
2023-04-25T22:59:26.420Z,100.00
2023-04-25T23:01:29.356Z,100.00
2023-04-25T23:03:32.754Z,100.00
2023-04-25T23:05:35.674Z,100.00
2023-04-25T23:07:39.076Z,100.00
2023-04-25T23:09:41.956Z,100.00
2023-04-25T23:11:44.886Z,100.00
2023-04-25T23:13:48.321Z,100.00
2023-04-25T23:15:51.006Z,100.00
2023-04-25T23:17:53.885Z,100.00
2023-04-25T23:19:56.670Z,100.00
2023-04-25T23:22:00.176Z,100.00
2023-04-25T23:24:02.934Z,100.00
2023-04-25T23:26:09.900Z,100.00
2023-04-25T23:28:12.993Z,100.00
2023-04-25T23:30:16.108Z,100.00
2023-04-25T23:32:18.802Z,100.00
2023-04-25T23:34:21.718Z,100.00
2023-04-25T23:36:24.545Z,100.00
2023-04-25T23:38:27.650Z,100.00
2023-04-25T23:40:31.923Z,100.00
2023-04-25T23:42:35.470Z,100.00
2023-04-25T23:44:38.208Z,100.00
2023-04-25T23:46:41.754Z,100.00
2023-04-25T23:48:44.549Z,100.00
2023-04-25T23:50:47.329Z,100.00
2023-04-25T23:52:50.061Z,100.00
2023-04-25T23:54:52.727Z,100.00
2023-04-25T23:56:55.413Z,100.00
2023-04-25T23:58:58.438Z,100.00
